Terminal Aerodrome Forecast
Issued by NWS Portland, OR

Home | Current Version | Previous Version | Text Only | Print | Product List | Glossary On
Versions: 1 2 3 4 5 6 7 8 9 10 11 12 13 14 15 16 17 18 19 20 21 22 23 24 25 26 27 28 29 30
000
FTUS46 KPQR 241739
TAFEUG
TAF
KEUG 241739Z 2418/2518 18007KT P6SM VCSH SCT028 BKN040
      TEMPO 2418/2419 BKN028
     FM241900 21006KT P6SM SCT030 BKN050
     FM242200 31010KT P6SM SCT060
     FM250900 34003KT P6SM SCT080
     FM251400 35005KT P6SM SCT025 SCT080=

USA.gov is the U.S. government's official web portal to all federal, state and local government web resources and services.